Yuho Maru No.3 — JD2491 — position and weather

sailwx.info

Track history (hours):
 
Tides and Currents Weather Stations Pressure Air Temp Water Temp Dewpoint Dewpoint Depression Visibility Wind Speed Wind Dir Waves Ship Positions

Yuho Maru No.3

Last reported at 2017-Feb-20 23:11 UTC. Time now 2017-Feb-21 12:12 UTC.
Position N 35°39' E 139°59'.

Length 65 m; draft 4.2 m.

Type: Tanker. MMSI: 431000336.

Date/timePositionNaut miles runAvg speedWind from/ knotsBaromVisibWave heightAir tempDewpointWater temp
2017-Feb-20 23:11N 35°39' E 139°59'2 0.3
2017-Feb-20 16:24N 35°41' E 139°59'12 0.6
2017-Feb-19 22:19N 35°29' E 139°56'1 0.7
2017-Feb-19 21:30N 35°29' E 139°56'0 0.0
2017-Feb-19 20:29N 35°29' E 139°56'0 0.1
2017-Feb-19 19:33N 35°29' E 139°55'0 0.1
2017-Feb-19 18:33N 35°29' E 139°56'0 0.0
2017-Feb-19 17:30N 35°29' E 139°56'0 0.0
2017-Feb-19 16:28N 35°29' E 139°56'0 0.1
2017-Feb-19 15:28N 35°29' E 139°56'0 0.0
2017-Feb-19 14:16N 35°29' E 139°55'0 0.1
2017-Feb-19 13:33N 35°29' E 139°56'10 9.9
2017-Feb-19 12:34N 35°23' E 139°46'1211.7
2017-Feb-19 11:33N 35°11' E 139°47'1212.3
2017-Feb-19 10:33N 35°02' E 139°37'346 7.4
2017-Feb-17 11:33N 33°59' E 132°44'1211.6
2017-Feb-17 10:33N 33°51' E 132°34'1211.9
2017-Feb-17 09:33N 33°43' E 132°23'9 0.6
2017-Feb-16 16:33N 33°50' E 132°32'1010.4
2017-Feb-16 15:33N 33°57' E 132°41'115 3.4
2017-Feb-15 05:25N 34°39' E 134°51'1112.1
2017-Feb-15 04:33N 34°36' E 135°03'1212.2
2017-Feb-15 03:33N 34°39' E 135°18'0 0.2
2017-Feb-15 02:33N 34°39' E 135°18'0 0.0
2017-Feb-15 01:33N 34°39' E 135°18'6 5.7
2017-Feb-15 00:34N 34°35' E 135°13'1211.0
2017-Feb-14 23:31N 34°37' E 134°59'12112.1
2017-Feb-14 13:32N 34°02' E 132°39'1313.2
2017-Feb-14 12:33N 33°53' E 132°27'2711.2
2017-Feb-14 10:08N 33°51' E 131°55'2 0.1
2017-Feb-13 11:33N 33°52' E 131°54'2311.3
2017-Feb-13 09:33N 33°50' E 132°21'1312.7
2017-Feb-13 08:33N 33°58' E 132°33'1413.7
2017-Feb-13 07:33N 34°07' E 132°45'  
Track history (hours):
 
Tides and Currents Weather Stations Pressure Air Temp Water Temp Dewpoint Dewpoint Depression Visibility Wind Speed Wind Dir Waves Ship Positions

Yuho Maru No.3

Last reported at 2017-Feb-20 23:11 UTC. Time now 2017-Feb-21 12:12 UTC.
Position N 35°39' E 139°59'.

Length 65 m; draft 4.2 m.

Type: Tanker. MMSI: 431000336.

Date/timePositionNaut miles runAvg speedWind from/ knotsBaromVisibWave heightAir tempDewpointWater temp
2017-Feb-20 23:11N 35°39' E 139°59'2 0.3
2017-Feb-20 16:24N 35°41' E 139°59'12 0.6
2017-Feb-19 22:19N 35°29' E 139°56'1 0.7
2017-Feb-19 21:30N 35°29' E 139°56'0 0.0
2017-Feb-19 20:29N 35°29' E 139°56'0 0.1
2017-Feb-19 19:33N 35°29' E 139°55'0 0.1
2017-Feb-19 18:33N 35°29' E 139°56'0 0.0
2017-Feb-19 17:30N 35°29' E 139°56'0 0.0
2017-Feb-19 16:28N 35°29' E 139°56'0 0.1
2017-Feb-19 15:28N 35°29' E 139°56'0 0.0
2017-Feb-19 14:16N 35°29' E 139°55'0 0.1
2017-Feb-19 13:33N 35°29' E 139°56'10 9.9
2017-Feb-19 12:34N 35°23' E 139°46'1211.7
2017-Feb-19 11:33N 35°11' E 139°47'1212.3
2017-Feb-19 10:33N 35°02' E 139°37'346 7.4
2017-Feb-17 11:33N 33°59' E 132°44'1211.6
2017-Feb-17 10:33N 33°51' E 132°34'1211.9
2017-Feb-17 09:33N 33°43' E 132°23'9 0.6
2017-Feb-16 16:33N 33°50' E 132°32'1010.4
2017-Feb-16 15:33N 33°57' E 132°41'115 3.4
2017-Feb-15 05:25N 34°39' E 134°51'1112.1
2017-Feb-15 04:33N 34°36' E 135°03'1212.2
2017-Feb-15 03:33N 34°39' E 135°18'0 0.2
2017-Feb-15 02:33N 34°39' E 135°18'0 0.0
2017-Feb-15 01:33N 34°39' E 135°18'6 5.7
2017-Feb-15 00:34N 34°35' E 135°13'1211.0
2017-Feb-14 23:31N 34°37' E 134°59'12112.1
2017-Feb-14 13:32N 34°02' E 132°39'1313.2
2017-Feb-14 12:33N 33°53' E 132°27'2711.2
2017-Feb-14 10:08N 33°51' E 131°55'2 0.1
2017-Feb-13 11:33N 33°52' E 131°54'2311.3
2017-Feb-13 09:33N 33°50' E 132°21'1312.7
2017-Feb-13 08:33N 33°58' E 132°33'1413.7
2017-Feb-13 07:33N 34°07' E 132°45'  

Dump ship's entire track history